createdAt,value
2022-11-13T00:00:37.936Z,28
2022-11-13T00:01:42.624Z,33
2022-11-13T00:02:47.162Z,34
2022-11-13T00:03:51.224Z,25
2022-11-13T00:04:55.827Z,25
2022-11-13T00:06:00.272Z,25
2022-11-13T00:07:05.084Z,32
2022-11-13T00:08:09.460Z,31
2022-11-13T00:09:14.094Z,29
2022-11-13T00:10:18.648Z,32
2022-11-13T00:11:23.168Z,34
2022-11-13T00:12:27.313Z,35
2022-11-13T00:13:31.771Z,32
2022-11-13T00:14:35.943Z,38
2022-11-13T00:15:40.033Z,25
2022-11-13T00:16:44.597Z,33
2022-11-13T00:17:48.631Z,26
2022-11-13T00:18:52.948Z,34
2022-11-13T00:19:57.460Z,32
2022-11-13T00:21:01.968Z,30
2022-11-13T00:22:11.877Z,28
2022-11-13T00:23:16.308Z,25
2022-11-13T00:24:20.913Z,30
2022-11-13T00:25:25.588Z,38
2022-11-13T00:26:30.068Z,32
2022-11-13T00:27:34.499Z,27
2022-11-13T00:28:38.600Z,28
2022-11-13T00:29:43.207Z,42
2022-11-13T00:30:47.412Z,41
2022-11-13T00:31:52.158Z,39
2022-11-13T00:32:56.645Z,34
2022-11-13T00:35:05.391Z,33
2022-11-13T00:36:09.896Z,25
2022-11-13T00:37:19.680Z,36
2022-11-13T00:38:24.444Z,30
2022-11-13T00:39:28.748Z,34
2022-11-13T00:40:33.254Z,35
2022-11-13T00:41:37.832Z,27
2022-11-13T00:42:42.384Z,27
2022-11-13T00:43:47.148Z,30
2022-11-13T00:44:51.755Z,26
2022-11-13T00:45:56.136Z,32
2022-11-13T00:47:00.375Z,25
2022-11-13T00:48:04.976Z,33
2022-11-13T00:49:09.549Z,27
2022-11-13T00:50:14.107Z,27
2022-11-13T00:51:18.616Z,27
2022-11-13T00:52:23.628Z,28
2022-11-13T00:53:27.850Z,28
2022-11-13T00:54:32.473Z,28
2022-11-13T00:55:36.932Z,27
2022-11-13T00:56:41.715Z,28
2022-11-13T00:57:46.044Z,35
2022-11-13T00:58:50.324Z,41
2022-11-13T00:59:55.117Z,35
2022-11-13T01:00:59.477Z,37
2022-11-13T01:02:07.163Z,28
2022-11-13T01:03:11.684Z,26
2022-11-13T01:04:16.301Z,26
2022-11-13T01:05:20.881Z,26
2022-11-13T01:06:25.515Z,33
2022-11-13T01:07:30.243Z,32
2022-11-13T01:08:34.921Z,25
2022-11-13T01:09:39.138Z,27
2022-11-13T01:10:44.794Z,28
2022-11-13T01:11:48.500Z,28
2022-11-13T01:12:53.000Z,33
2022-11-13T01:13:57.678Z,29
2022-11-13T01:15:02.224Z,30
2022-11-13T01:16:06.852Z,29
2022-11-13T01:17:11.735Z,35
2022-11-13T01:18:15.984Z,37
2022-11-13T01:19:20.575Z,28
2022-11-13T01:20:25.144Z,27
2022-11-13T01:21:29.640Z,31
2022-11-13T01:22:33.920Z,25
2022-11-13T01:23:38.356Z,26
2022-11-13T01:24:43.060Z,25
2022-11-13T01:25:47.448Z,25
2022-11-13T01:26:51.707Z,42
2022-11-13T01:27:56.367Z,41
2022-11-13T01:29:00.982Z,30
2022-11-13T01:30:05.358Z,36
2022-11-13T01:31:10.035Z,36
2022-11-13T01:32:14.678Z,28
2022-11-13T01:33:19.187Z,38
2022-11-13T01:34:23.902Z,42
2022-11-13T01:35:28.482Z,36
2022-11-13T01:36:32.982Z,35
2022-11-13T01:37:37.634Z,34
2022-11-13T01:38:42.182Z,28
2022-11-13T01:39:46.775Z,28
2022-11-13T01:40:51.354Z,28
2022-11-13T01:41:56.410Z,42
2022-11-13T01:43:00.735Z,35
2022-11-13T01:44:13.243Z,35
2022-11-13T01:45:17.782Z,36
2022-11-13T01:46:32.692Z,29
2022-11-13T01:47:37.104Z,35
2022-11-13T01:48:41.658Z,33
2022-11-13T01:49:51.759Z,25
2022-11-13T01:50:56.003Z,31
2022-11-13T01:52:00.629Z,30
2022-11-13T01:53:05.373Z,26
2022-11-13T01:54:09.715Z,35
2022-11-13T01:55:13.894Z,33
2022-11-13T01:56:18.447Z,38
2022-11-13T01:57:23.090Z,31
2022-11-13T01:58:27.981Z,34
2022-11-13T01:59:32.114Z,27
2022-11-13T02:00:41.758Z,27
2022-11-13T02:01:46.001Z,35
2022-11-13T02:02:50.134Z,27
2022-11-13T02:03:54.698Z,36
2022-11-13T02:04:59.343Z,28
2022-11-13T02:06:03.838Z,41
2022-11-13T02:07:08.409Z,32
2022-11-13T02:08:12.599Z,36
2022-11-13T02:09:17.170Z,37
2022-11-13T02:10:21.646Z,34
2022-11-13T02:11:26.314Z,32
2022-11-13T02:12:30.938Z,32
2022-11-13T02:13:35.463Z,34
2022-11-13T02:14:39.982Z,35
2022-11-13T02:15:47.111Z,30
2022-11-13T02:16:51.190Z,51
2022-11-13T02:17:55.618Z,44
2022-11-13T02:18:59.938Z,46
2022-11-13T02:20:06.994Z,41
2022-11-13T02:21:11.839Z,39
2022-11-13T02:22:21.347Z,47
2022-11-13T02:23:36.280Z,48
2022-11-13T02:24:47.206Z,45
2022-11-13T02:25:50.222Z,47
2022-11-13T02:26:54.482Z,38
2022-11-13T02:27:59.124Z,36
2022-11-13T02:29:03.526Z,34
2022-11-13T02:30:08.098Z,39
2022-11-13T02:31:14.735Z,30
2022-11-13T02:32:19.298Z,54
2022-11-13T02:33:23.923Z,40
2022-11-13T02:34:31.619Z,39
2022-11-13T02:35:36.136Z,53
2022-11-13T02:36:40.825Z,47
2022-11-13T02:37:45.283Z,42
2022-11-13T02:38:50.062Z,43
2022-11-13T02:39:54.697Z,40
2022-11-13T02:40:59.114Z,40
2022-11-13T02:42:03.693Z,41
2022-11-13T02:43:08.278Z,44
2022-11-13T02:44:12.938Z,46
2022-11-13T02:45:17.483Z,36
2022-11-13T02:46:21.990Z,37
2022-11-13T02:47:26.513Z,44
2022-11-13T02:48:31.124Z,43
2022-11-13T02:49:35.277Z,39
2022-11-13T02:50:39.815Z,37
2022-11-13T02:51:44.502Z,36
2022-11-13T02:52:49.204Z,37
2022-11-13T02:53:53.960Z,40
2022-11-13T02:54:58.258Z,25
2022-11-13T02:56:02.787Z,37
2022-11-13T02:57:07.385Z,34
2022-11-13T02:58:11.987Z,29
2022-11-13T02:59:16.542Z,30
2022-11-13T03:00:20.650Z,25
2022-11-13T03:01:25.326Z,26
2022-11-13T03:02:29.771Z,37
2022-11-13T03:03:56.865Z,36
2022-11-13T03:05:05.097Z,35
2022-11-13T03:05:43.139Z,38
2022-11-13T03:06:50.729Z,36
2022-11-13T03:07:54.726Z,34
2022-11-13T03:08:59.543Z,36
2022-11-13T03:10:03.911Z,39
2022-11-13T03:11:08.483Z,29
2022-11-13T03:12:12.667Z,31
2022-11-13T03:13:17.318Z,32
2022-11-13T03:14:21.704Z,29
2022-11-13T03:15:25.774Z,35
2022-11-13T03:16:30.462Z,29
2022-11-13T03:17:34.906Z,35
2022-11-13T03:18:38.925Z,34
2022-11-13T03:19:43.029Z,31
2022-11-13T03:20:47.451Z,30
2022-11-13T03:21:51.994Z,35
2022-11-13T03:22:56.325Z,37
2022-11-13T03:24:00.366Z,32
2022-11-13T03:25:10.105Z,35
2022-11-13T03:26:09.626Z,34
2022-11-13T03:27:14.199Z,32
2022-11-13T03:28:18.897Z,33
2022-11-13T03:29:23.361Z,31
2022-11-13T03:30:27.869Z,27
2022-11-13T03:31:31.959Z,34
2022-11-13T03:32:36.609Z,38
2022-11-13T03:33:41.353Z,32
2022-11-13T03:34:45.767Z,25
2022-11-13T03:35:50.257Z,36
2022-11-13T03:36:54.534Z,33
2022-11-13T03:37:59.179Z,35
2022-11-13T03:39:03.766Z,33
2022-11-13T03:40:08.465Z,32
2022-11-13T03:41:12.889Z,33
2022-11-13T03:42:17.329Z,34
2022-11-13T03:43:21.977Z,29
2022-11-13T03:44:26.616Z,37
2022-11-13T03:45:31.253Z,32
2022-11-13T03:46:35.748Z,37
2022-11-13T03:47:40.284Z,35
2022-11-13T03:48:45.012Z,32
2022-11-13T03:49:49.697Z,34
2022-11-13T03:50:54.244Z,36
2022-11-13T03:51:58.665Z,37
2022-11-13T03:53:02.773Z,40
2022-11-13T03:54:06.871Z,34
2022-11-13T03:55:11.849Z,34
2022-11-13T03:56:16.112Z,38
2022-11-13T03:57:20.581Z,33
2022-11-13T03:58:24.761Z,33
2022-11-13T03:59:28.799Z,30
2022-11-13T04:00:33.399Z,37
2022-11-13T04:01:38.043Z,40
2022-11-13T04:02:42.661Z,38
2022-11-13T04:03:47.208Z,36
2022-11-13T04:04:51.797Z,32
2022-11-13T04:05:56.388Z,25
2022-11-13T04:07:01.061Z,28
2022-11-13T04:08:05.616Z,28
2022-11-13T04:09:09.992Z,31
2022-11-13T04:10:15.208Z,30
2022-11-13T04:11:19.941Z,35
2022-11-13T04:12:24.372Z,27
2022-11-13T04:13:28.924Z,39
2022-11-13T04:14:33.548Z,27
2022-11-13T04:15:38.177Z,30
2022-11-13T04:16:42.703Z,25
2022-11-13T04:17:47.332Z,33
2022-11-13T04:18:52.197Z,35
2022-11-13T04:19:56.440Z,34
2022-11-13T04:21:01.049Z,36
2022-11-13T04:22:05.648Z,38
2022-11-13T04:23:10.372Z,36
2022-11-13T04:24:15.049Z,36
2022-11-13T04:25:19.397Z,36
2022-11-13T04:26:23.420Z,36
2022-11-13T04:27:28.017Z,35
2022-11-13T04:28:32.808Z,30
2022-11-13T04:29:37.175Z,29
2022-11-13T04:30:41.696Z,40
2022-11-13T04:31:46.253Z,33
2022-11-13T04:32:50.471Z,28
2022-11-13T04:33:55.112Z,37
2022-11-13T04:34:59.670Z,32
2022-11-13T04:36:04.138Z,41
2022-11-13T04:37:08.668Z,30
2022-11-13T04:38:12.767Z,34
2022-11-13T04:39:16.846Z,40
2022-11-13T04:40:21.467Z,33
2022-11-13T04:41:26.067Z,35
2022-11-13T04:42:35.786Z,28
2022-11-13T04:43:45.244Z,28
2022-11-13T04:44:50.014Z,27
2022-11-13T04:45:54.527Z,31
2022-11-13T04:46:59.190Z,26
2022-11-13T04:48:03.835Z,32
2022-11-13T04:49:08.291Z,26
2022-11-13T04:50:12.270Z,31
2022-11-13T04:51:17.066Z,25
2022-11-13T04:52:21.691Z,33
2022-11-13T04:53:26.054Z,30
2022-11-13T04:54:30.623Z,28
2022-11-13T04:55:35.263Z,35
2022-11-13T04:56:39.802Z,36
2022-11-13T04:57:44.495Z,32
2022-11-13T04:58:48.878Z,37
2022-11-13T04:59:53.095Z,33
2022-11-13T05:00:57.994Z,35
2022-11-13T05:02:02.292Z,31
2022-11-13T05:03:06.798Z,36
2022-11-13T05:04:11.412Z,30
2022-11-13T05:05:15.897Z,28
2022-11-13T05:06:20.579Z,39
2022-11-13T05:07:25.050Z,37
2022-11-13T05:08:30.052Z,34
2022-11-13T05:09:34.150Z,32
2022-11-13T05:10:38.442Z,27
2022-11-13T05:11:42.898Z,28
2022-11-13T05:12:47.490Z,27
2022-11-13T05:13:52.054Z,28
2022-11-13T05:14:56.653Z,35
2022-11-13T05:16:01.194Z,29
2022-11-13T05:17:08.277Z,25
2022-11-13T05:18:13.005Z,28
2022-11-13T05:19:17.681Z,29
2022-11-13T05:20:22.054Z,28
2022-11-13T05:21:26.723Z,26
2022-11-13T05:22:31.251Z,30
2022-11-13T05:23:36.017Z,28
2022-11-13T05:24:40.430Z,29
2022-11-13T05:25:45.413Z,28
2022-11-13T05:26:49.445Z,25
2022-11-13T05:27:53.781Z,25
2022-11-13T05:28:58.361Z,25
2022-11-13T05:30:02.897Z,30
2022-11-13T05:31:08.062Z,25
2022-11-13T05:32:12.688Z,28
2022-11-13T05:33:17.142Z,34
2022-11-13T05:34:21.701Z,34
2022-11-13T05:35:26.151Z,31
2022-11-13T05:36:30.792Z,35
2022-11-13T05:37:35.234Z,32
2022-11-13T05:38:39.629Z,32
2022-11-13T05:39:44.145Z,26
2022-11-13T05:40:48.685Z,31
2022-11-13T05:41:52.817Z,35
2022-11-13T05:42:57.512Z,34
2022-11-13T05:44:01.981Z,30
2022-11-13T05:45:06.476Z,33
2022-11-13T05:46:11.080Z,31
2022-11-13T05:47:18.580Z,37
2022-11-13T05:48:22.862Z,31
2022-11-13T05:49:27.388Z,32
2022-11-13T05:50:32.092Z,36
2022-11-13T05:51:36.525Z,37
2022-11-13T05:52:40.993Z,38
2022-11-13T05:53:45.028Z,35
2022-11-13T05:54:49.235Z,37
2022-11-13T05:55:53.951Z,41
2022-11-13T05:57:01.030Z,37
2022-11-13T05:58:05.619Z,40
2022-11-13T05:59:10.325Z,39
2022-11-13T06:00:14.752Z,36
2022-11-13T06:01:19.269Z,39
2022-11-13T06:02:29.573Z,41
2022-11-13T06:03:34.093Z,37
2022-11-13T06:04:38.557Z,40
2022-11-13T06:05:42.697Z,38
2022-11-13T06:06:47.343Z,33
2022-11-13T06:07:51.944Z,31
2022-11-13T06:08:56.540Z,30
2022-11-13T06:10:01.292Z,36
2022-11-13T06:11:06.184Z,33
2022-11-13T06:12:10.202Z,32
2022-11-13T06:13:14.777Z,35
2022-11-13T06:14:19.198Z,36
2022-11-13T06:15:23.499Z,27
2022-11-13T06:16:27.877Z,29
2022-11-13T06:17:35.025Z,38
2022-11-13T06:18:39.513Z,39
2022-11-13T06:19:44.141Z,41
2022-11-13T06:20:48.673Z,32
2022-11-13T06:21:52.962Z,31
2022-11-13T06:22:57.573Z,39
2022-11-13T06:24:02.240Z,35
2022-11-13T06:25:06.626Z,37
2022-11-13T06:26:11.193Z,42
2022-11-13T06:27:15.092Z,41
2022-11-13T06:28:19.313Z,40
2022-11-13T06:29:23.929Z,37
2022-11-13T06:30:28.461Z,48
2022-11-13T06:31:33.103Z,38
2022-11-13T06:32:37.849Z,44
2022-11-13T06:33:42.146Z,46
2022-11-13T06:34:46.742Z,42
2022-11-13T06:35:51.121Z,50
2022-11-13T06:36:55.447Z,46
2022-11-13T06:38:00.341Z,44
2022-11-13T06:39:04.665Z,51
2022-11-13T06:40:09.258Z,46
2022-11-13T06:41:14.224Z,47
2022-11-13T06:42:18.273Z,40
2022-11-13T06:43:22.957Z,41
2022-11-13T06:44:27.333Z,37
2022-11-13T06:45:31.672Z,37
2022-11-13T06:46:36.229Z,33
2022-11-13T06:47:40.642Z,55
2022-11-13T06:48:45.234Z,43
2022-11-13T06:49:49.765Z,47
2022-11-13T06:50:53.847Z,50
2022-11-13T06:51:58.439Z,48
2022-11-13T06:53:02.937Z,50
2022-11-13T06:54:07.166Z,43
2022-11-13T06:55:11.629Z,51
2022-11-13T06:56:15.741Z,49
2022-11-13T06:57:20.389Z,51
2022-11-13T06:58:24.944Z,64
2022-11-13T06:59:29.027Z,58
2022-11-13T07:00:36.628Z,54
2022-11-13T07:01:38.342Z,50
2022-11-13T07:02:42.538Z,57
2022-11-13T07:03:47.493Z,62
2022-11-13T07:04:51.801Z,57
2022-11-13T07:05:56.497Z,51
2022-11-13T07:07:03.500Z,57
2022-11-13T07:08:08.034Z,60
2022-11-13T07:09:12.789Z,53
2022-11-13T07:10:17.478Z,55
2022-11-13T07:11:21.925Z,50
2022-11-13T07:12:26.400Z,56
2022-11-13T07:13:31.038Z,51
2022-11-13T07:14:35.622Z,56
2022-11-13T07:15:40.442Z,43
2022-11-13T07:17:07.787Z,50
2022-11-13T07:17:49.271Z,48
2022-11-13T07:18:53.568Z,53
2022-11-13T07:19:58.113Z,55
2022-11-13T07:21:02.859Z,56
2022-11-13T07:22:07.502Z,46
2022-11-13T07:23:11.777Z,61
2022-11-13T07:24:17.148Z,53
2022-11-13T07:25:20.971Z,51
2022-11-13T07:26:25.610Z,48
2022-11-13T07:27:30.066Z,50
2022-11-13T07:28:33.998Z,51
2022-11-13T07:29:38.441Z,48
2022-11-13T07:30:43.742Z,51
2022-11-13T07:31:48.434Z,52
2022-11-13T07:32:53.247Z,53
2022-11-13T07:33:57.769Z,53
2022-11-13T07:35:02.486Z,44
2022-11-13T07:36:07.370Z,51
2022-11-13T07:37:12.190Z,53
2022-11-13T07:38:16.487Z,46
2022-11-13T07:39:21.070Z,44
2022-11-13T07:40:25.665Z,44
2022-11-13T07:41:30.166Z,56
2022-11-13T07:42:34.875Z,57
2022-11-13T07:43:39.410Z,58
2022-11-13T07:44:59.389Z,58
2022-11-13T07:45:48.531Z,54
2022-11-13T07:46:53.307Z,53
2022-11-13T07:47:57.741Z,54
2022-11-13T07:49:02.270Z,50
2022-11-13T07:50:10.808Z,49
2022-11-13T07:51:12.173Z,50
2022-11-13T07:52:16.446Z,63
2022-11-13T07:53:21.166Z,63
2022-11-13T07:54:25.629Z,55
2022-11-13T07:55:30.270Z,62
2022-11-13T07:56:34.998Z,54
2022-11-13T07:57:39.445Z,63
2022-11-13T07:58:43.926Z,64
2022-11-13T07:59:48.430Z,60
2022-11-13T08:00:52.722Z,62
2022-11-13T08:01:57.339Z,57
2022-11-13T08:03:01.910Z,72
2022-11-13T08:04:14.462Z,64
2022-11-13T08:05:19.054Z,60
2022-11-13T08:06:23.530Z,64
2022-11-13T08:07:27.734Z,67
2022-11-13T08:08:32.501Z,62
2022-11-13T08:09:36.791Z,70
2022-11-13T08:10:41.622Z,68
2022-11-13T08:11:46.186Z,71
2022-11-13T08:12:50.724Z,71
2022-11-13T08:14:00.455Z,69
2022-11-13T08:15:08.192Z,71
2022-11-13T08:16:09.577Z,72
2022-11-13T08:17:14.287Z,71
2022-11-13T08:18:18.705Z,68
2022-11-13T08:19:23.189Z,73
2022-11-13T08:20:28.340Z,73
2022-11-13T08:21:32.962Z,71
2022-11-13T08:22:37.782Z,71
2022-11-13T08:23:42.348Z,69
2022-11-13T08:24:46.834Z,72
2022-11-13T08:25:51.365Z,63
2022-11-13T08:26:55.966Z,70
2022-11-13T08:28:00.791Z,69
2022-11-13T08:29:05.714Z,68
2022-11-13T08:30:11.181Z,68
2022-11-13T08:31:16.170Z,73
2022-11-13T08:32:20.991Z,71
2022-11-13T08:33:25.351Z,61
2022-11-13T08:34:29.996Z,69
2022-11-13T08:35:34.779Z,70
2022-11-13T08:36:39.344Z,63
2022-11-13T08:37:44.030Z,71
2022-11-13T08:38:48.290Z,66
2022-11-13T08:39:54.222Z,70
2022-11-13T08:40:58.502Z,67
2022-11-13T08:42:03.370Z,73
2022-11-13T08:43:08.140Z,71
2022-11-13T08:44:12.215Z,66
2022-11-13T08:45:16.882Z,73
2022-11-13T08:46:21.609Z,71
2022-11-13T08:47:29.390Z,66
2022-11-13T08:48:31.277Z,74
2022-11-13T08:49:35.526Z,69
2022-11-13T08:50:40.038Z,76
2022-11-13T08:51:44.490Z,75
2022-11-13T08:52:48.990Z,70
2022-11-13T08:53:55.978Z,78
2022-11-13T08:55:00.654Z,74
2022-11-13T08:56:05.271Z,89
2022-11-13T08:57:10.022Z,77
2022-11-13T08:58:14.485Z,89
2022-11-13T08:59:18.940Z,90
2022-11-13T09:00:23.722Z,94
2022-11-13T09:01:28.050Z,103
2022-11-13T09:02:32.655Z,103
2022-11-13T09:03:37.312Z,107
2022-11-13T09:04:42.066Z,110
2022-11-13T09:05:46.587Z,104
2022-11-13T09:06:50.857Z,104
2022-11-13T09:07:55.198Z,100
2022-11-13T09:08:59.786Z,98
2022-11-13T09:10:04.494Z,106
2022-11-13T09:11:09.414Z,104
2022-11-13T09:12:14.022Z,97
2022-11-13T09:13:18.731Z,103
2022-11-13T09:14:23.290Z,114
2022-11-13T09:15:27.839Z,110
2022-11-13T09:16:32.278Z,99
2022-11-13T09:17:36.950Z,106
2022-11-13T09:18:41.538Z,108
2022-11-13T09:19:46.264Z,110
2022-11-13T09:20:51.182Z,105
2022-11-13T09:21:55.318Z,104
2022-11-13T09:23:00.404Z,104
2022-11-13T09:24:05.526Z,105
2022-11-13T09:25:10.182Z,106
2022-11-13T09:26:15.282Z,97
2022-11-13T09:27:19.774Z,103
2022-11-13T09:28:24.667Z,96
2022-11-13T09:29:29.199Z,104
2022-11-13T09:30:33.651Z,104
2022-11-13T09:31:38.110Z,108
2022-11-13T09:32:42.687Z,110
2022-11-13T09:33:47.215Z,116
2022-11-13T09:34:51.822Z,106
2022-11-13T09:35:56.463Z,112
2022-11-13T09:37:00.981Z,112
2022-11-13T09:38:10.651Z,109
2022-11-13T09:39:09.621Z,105
2022-11-13T09:40:14.175Z,106
2022-11-13T09:41:18.998Z,111
2022-11-13T09:42:29.323Z,107
2022-11-13T09:43:33.724Z,106
2022-11-13T09:44:40.732Z,102
2022-11-13T09:45:47.819Z,102
2022-11-13T09:46:54.997Z,101
2022-11-13T09:48:07.551Z,94
2022-11-13T09:49:19.734Z,93
2022-11-13T09:50:31.919Z,93
2022-11-13T09:51:37.555Z,73
2022-11-13T09:52:42.377Z,76
2022-11-13T09:53:46.682Z,80
2022-11-13T09:54:51.342Z,66
2022-11-13T09:55:55.862Z,71
2022-11-13T09:57:05.657Z,62
2022-11-13T09:58:20.315Z,48
2022-11-13T09:59:27.498Z,68
2022-11-13T10:00:41.999Z,63
2022-11-13T10:01:46.146Z,69
2022-11-13T10:03:00.846Z,63
2022-11-13T10:04:15.685Z,60
2022-11-13T10:05:20.322Z,54
2022-11-13T10:06:24.699Z,50
2022-11-13T10:07:37.006Z,43
2022-11-13T10:08:51.802Z,40
2022-11-13T10:09:58.978Z,33
2022-11-13T10:11:13.558Z,46
2022-11-13T10:12:23.294Z,44
2022-11-13T10:13:27.898Z,34
2022-11-13T10:14:35.156Z,34
2022-11-13T10:15:39.690Z,34
2022-11-13T10:16:44.270Z,25
2022-11-13T10:17:57.122Z,37
2022-11-13T10:19:01.942Z,47
2022-11-13T10:20:06.615Z,49
2022-11-13T10:21:17.409Z,43
2022-11-13T10:22:34.652Z,25
2022-11-13T10:23:31.797Z,25
2022-11-13T10:24:36.287Z,25
2022-11-13T10:25:40.710Z,29
2022-11-13T10:26:45.346Z,27
2022-11-13T10:27:49.780Z,28
2022-11-13T10:28:55.137Z,26
2022-11-13T10:30:02.242Z,27
2022-11-13T10:31:15.006Z,35
2022-11-13T10:32:19.327Z,35
2022-11-13T10:33:26.767Z,51
2022-11-13T10:34:31.226Z,25
2022-11-13T10:35:35.994Z,30
2022-11-13T10:36:41.649Z,25
2022-11-13T10:37:56.534Z,38
2022-11-13T10:39:04.034Z,40
2022-11-13T10:40:08.282Z,33
2022-11-13T10:41:12.895Z,33
2022-11-13T10:42:17.741Z,25
2022-11-13T10:43:24.974Z,25
2022-11-13T10:44:29.637Z,41
2022-11-13T10:45:34.514Z,29
2022-11-13T10:46:38.648Z,28
2022-11-13T10:48:02.972Z,38
2022-11-13T10:48:50.829Z,30
2022-11-13T10:49:55.641Z,30
2022-11-13T10:51:10.389Z,27
2022-11-13T10:52:25.002Z,28
2022-11-13T10:53:29.877Z,25
2022-11-13T10:54:34.930Z,28
2022-11-13T10:55:39.235Z,36
2022-11-13T10:56:43.830Z,28
2022-11-13T10:57:50.342Z,35
2022-11-13T10:58:56.042Z,30
2022-11-13T11:00:09.053Z,27
2022-11-13T11:01:22.959Z,25
2022-11-13T11:02:27.065Z,28
2022-11-13T11:03:31.710Z,36
2022-11-13T11:04:36.091Z,45
2022-11-13T11:05:40.262Z,52
2022-11-13T11:07:58.050Z,58
2022-11-13T11:09:02.231Z,35
2022-11-13T11:10:14.797Z,40
2022-11-13T11:11:22.102Z,43
2022-11-13T11:12:31.829Z,38
2022-11-13T11:13:36.660Z,31
2022-11-13T11:14:41.701Z,28
2022-11-13T11:15:56.137Z,31
2022-11-13T11:17:01.495Z,32
2022-11-13T11:18:05.981Z,28
2022-11-13T11:19:15.418Z,28
2022-11-13T11:20:20.077Z,29
2022-11-13T11:21:34.886Z,25
2022-11-13T11:22:39.600Z,25
2022-11-13T11:23:44.282Z,28
2022-11-13T11:24:53.873Z,27
2022-11-13T11:26:01.437Z,32
2022-11-13T11:27:11.385Z,35
2022-11-13T11:28:19.226Z,53
2022-11-13T11:29:26.857Z,25
2022-11-13T11:30:39.442Z,25
2022-11-13T11:31:47.085Z,26
2022-11-13T11:32:51.798Z,29
2022-11-13T11:34:01.310Z,35
2022-11-13T11:35:16.629Z,30
2022-11-13T11:36:26.342Z,31
2022-11-13T11:37:36.601Z,26
2022-11-13T11:38:40.930Z,25
2022-11-13T11:39:53.345Z,29
2022-11-13T11:41:05.847Z,30
2022-11-13T11:42:10.631Z,26
2022-11-13T11:43:25.221Z,31
2022-11-13T11:44:40.017Z,25
2022-11-13T11:45:44.722Z,26
2022-11-13T11:46:49.029Z,28
2022-11-13T11:47:53.398Z,25
2022-11-13T11:48:57.830Z,25
2022-11-13T11:50:02.771Z,33
2022-11-13T11:51:07.738Z,30
2022-11-13T11:52:17.094Z,31
2022-11-13T11:54:28.650Z,31
2022-11-13T11:56:34.759Z,31
2022-11-13T11:58:45.905Z,31
2022-11-13T12:01:03.322Z,31
2022-11-13T12:03:15.050Z,31
2022-11-13T12:05:24.202Z,31
2022-11-13T12:07:30.281Z,31
2022-11-13T12:09:41.955Z,31
2022-11-13T12:11:53.773Z,31
2022-11-13T12:14:10.497Z,31
2022-11-13T12:16:18.837Z,31
2022-11-13T12:18:28.670Z,31
2022-11-13T12:20:39.982Z,31
2022-11-13T12:22:56.713Z,31
2022-11-13T12:25:08.441Z,31
2022-11-13T12:27:22.585Z,31
2022-11-13T12:29:33.811Z,31
2022-11-13T12:31:50.505Z,31
2022-11-13T12:34:00.973Z,31
2022-11-13T12:36:05.892Z,31
2022-11-13T12:38:12.010Z,31
2022-11-13T12:40:23.681Z,31
2022-11-13T12:42:29.830Z,31
2022-11-13T12:44:44.009Z,31
2022-11-13T12:46:55.233Z,31
2022-11-13T12:49:01.465Z,31
2022-11-13T12:51:07.478Z,31
2022-11-13T12:53:16.238Z,31
2022-11-13T12:56:54.889Z,0
2022-11-13T12:59:29.606Z,0
2022-11-13T13:04:31.430Z,0
2022-11-13T13:06:40.486Z,0
2022-11-13T13:08:54.649Z,0
2022-11-13T13:11:11.084Z,0
2022-11-13T13:13:24.113Z,0
2022-11-13T13:15:31.664Z,0
2022-11-13T13:17:41.263Z,0
2022-11-13T13:19:47.662Z,0
2022-11-13T13:22:04.592Z,0
2022-11-13T13:24:14.216Z,0
2022-11-13T13:26:30.808Z,0
2022-11-13T13:28:36.976Z,0
2022-11-13T13:30:42.976Z,0
2022-11-13T13:32:54.296Z,0
2022-11-13T13:35:08.163Z,0
2022-11-13T13:37:17.436Z,0
2022-11-13T13:39:31.692Z,0
2022-11-13T13:41:38.272Z,0
2022-11-13T13:43:54.936Z,0
2022-11-13T13:46:06.348Z,0
2022-11-13T13:48:18.631Z,0
2022-11-13T13:50:25.430Z,0
2022-11-13T13:52:31.377Z,0
2022-11-13T13:54:38.004Z,0
2022-11-13T13:56:44.032Z,0
2022-11-13T13:58:50.172Z,0
2022-11-13T14:01:16.911Z,0
2022-11-13T14:03:05.291Z,0
2022-11-13T14:05:17.092Z,0
2022-11-13T14:07:29.177Z,0
2022-11-13T14:09:35.308Z,0
2022-11-13T14:11:41.619Z,0
2022-11-13T14:13:48.357Z,0
2022-11-13T14:15:54.707Z,0
2022-11-13T14:18:06.117Z,0
2022-11-13T14:20:14.682Z,0
2022-11-13T14:22:20.892Z,0
2022-11-13T14:24:27.213Z,0
2022-11-13T14:26:34.200Z,0
2022-11-13T14:28:40.333Z,0
2022-11-13T14:30:51.904Z,0
2022-11-13T14:33:00.568Z,0
2022-11-13T14:35:07.005Z,0
2022-11-13T14:37:13.528Z,0
2022-11-13T14:39:24.736Z,0
2022-11-13T14:41:30.924Z,0
2022-11-13T14:43:41.903Z,0
2022-11-13T14:45:48.364Z,0
2022-11-13T14:48:00.248Z,0
2022-11-13T14:50:16.604Z,0
2022-11-13T14:52:23.030Z,0
2022-11-13T14:54:41.799Z,0
2022-11-13T14:56:36.405Z,0
2022-11-13T14:58:42.385Z,0
2022-11-13T15:00:51.577Z,0
2022-11-13T15:02:57.650Z,0
2022-11-13T15:05:03.723Z,0
2022-11-13T15:07:10.249Z,0
2022-11-13T15:09:21.984Z,0
2022-11-13T15:11:28.506Z,0
2022-11-13T15:13:34.746Z,0
2022-11-13T15:15:40.756Z,0
2022-11-13T15:17:47.240Z,0
2022-11-13T15:19:53.469Z,0
2022-11-13T15:22:25.719Z,0
2022-11-13T15:24:05.920Z,0
2022-11-13T15:26:12.424Z,0
2022-11-13T15:28:18.546Z,0
2022-11-13T15:30:24.772Z,0
2022-11-13T15:32:30.852Z,0
2022-11-13T15:34:36.904Z,0
2022-11-13T15:36:43.212Z,0
2022-11-13T15:38:49.645Z,0
2022-11-13T15:40:55.817Z,0
2022-11-13T15:43:02.037Z,0
2022-11-13T15:45:08.204Z,0
2022-11-13T15:47:17.525Z,0
2022-11-13T15:49:26.885Z,0
2022-11-13T15:51:33.162Z,0
2022-11-13T15:53:42.580Z,0
2022-11-13T15:55:49.120Z,0
2022-11-13T15:57:55.847Z,0
2022-11-13T16:00:02.232Z,0
2022-11-13T16:02:08.736Z,0
2022-11-13T16:04:15.262Z,0
2022-11-13T16:06:21.470Z,0
2022-11-13T16:08:27.928Z,0
2022-11-13T16:10:34.336Z,0
2022-11-13T16:12:40.917Z,0
2022-11-13T16:14:47.388Z,0
2022-11-13T16:16:53.656Z,0
2022-11-13T16:19:00.488Z,0
2022-11-13T16:21:05.997Z,0
2022-11-13T16:23:15.275Z,0
2022-11-13T16:25:21.443Z,0
2022-11-13T16:27:27.565Z,0
2022-11-13T16:29:33.693Z,0
2022-11-13T16:31:39.841Z,0
2022-11-13T16:33:46.007Z,0
2022-11-13T16:35:52.080Z,0
2022-11-13T16:37:58.499Z,0
2022-11-13T16:40:04.595Z,0
2022-11-13T16:42:15.928Z,0
2022-11-13T16:44:21.955Z,0
2022-11-13T16:46:28.227Z,0
2022-11-13T16:48:34.285Z,0
2022-11-13T16:50:40.344Z,0
2022-11-13T16:52:46.669Z,0
2022-11-13T16:54:52.823Z,0
2022-11-13T16:56:58.802Z,0
2022-11-13T16:59:05.107Z,0
2022-11-13T17:01:11.466Z,0
2022-11-13T17:03:17.553Z,0
2022-11-13T17:05:23.682Z,0
2022-11-13T17:07:29.857Z,0
2022-11-13T17:09:36.051Z,0
2022-11-13T17:11:45.408Z,0
2022-11-13T17:13:51.470Z,0
2022-11-13T17:15:57.619Z,0
2022-11-13T17:18:03.839Z,0
2022-11-13T17:20:10.292Z,0
2022-11-13T17:22:16.860Z,0
2022-11-13T17:24:23.399Z,0
2022-11-13T17:26:30.350Z,0
2022-11-13T17:28:36.937Z,0
2022-11-13T17:30:43.247Z,0
2022-11-13T17:32:49.392Z,0
2022-11-13T17:34:55.539Z,0
2022-11-13T17:37:01.687Z,0
2022-11-13T17:39:07.847Z,0
2022-11-13T17:41:14.172Z,0
2022-11-13T17:43:20.263Z,0
2022-11-13T17:45:26.681Z,0
2022-11-13T17:47:33.003Z,0
2022-11-13T17:49:39.143Z,0
2022-11-13T17:51:45.147Z,0
2022-11-13T17:53:51.276Z,0
2022-11-13T17:55:57.506Z,0
2022-11-13T17:58:03.517Z,0
2022-11-13T18:00:10.076Z,0
2022-11-13T18:02:16.600Z,0
2022-11-13T18:04:22.647Z,0
2022-11-13T18:06:28.936Z,0
2022-11-13T18:08:35.012Z,0
2022-11-13T18:10:41.223Z,0
2022-11-13T18:11:51.125Z,0
2022-11-13T18:12:56.317Z,104
2022-11-13T18:14:00.714Z,101
2022-11-13T18:15:05.398Z,111
2022-11-13T18:16:10.444Z,100
2022-11-13T18:17:15.704Z,99
2022-11-13T18:18:20.507Z,99
2022-11-13T18:19:24.999Z,92
2022-11-13T18:20:29.503Z,91
2022-11-13T18:21:33.988Z,94
2022-11-13T18:22:38.468Z,96
2022-11-13T18:23:42.525Z,91
2022-11-13T18:24:46.807Z,79
2022-11-13T18:25:51.209Z,89
2022-11-13T18:26:55.463Z,91
2022-11-13T18:28:00.052Z,88
2022-11-13T18:29:04.619Z,87
2022-11-13T18:30:09.099Z,85
2022-11-13T18:31:13.531Z,89
2022-11-13T18:32:18.019Z,92
2022-11-13T18:33:22.597Z,90
2022-11-13T18:34:26.657Z,84
2022-11-13T18:35:31.467Z,79
2022-11-13T18:36:35.918Z,83
2022-11-13T18:37:40.536Z,86
2022-11-13T18:38:45.110Z,89
2022-11-13T18:39:49.631Z,81
2022-11-13T18:40:54.207Z,89
2022-11-13T18:42:03.872Z,84
2022-11-13T18:43:08.188Z,78
2022-11-13T18:44:12.699Z,79
2022-11-13T18:45:17.267Z,76